Angler Guide Weather for Inukjuak -
Inukjuak, Québec Current Weather Conditions
Enter your "Place, State", US Zip Code or ICAO:  
Forecast Information Radar Information
Inukjuak, Québec, Canada  Lat: 58.43N, Lon: 78.08W
ICAO Used: CYPX
Current Conditions
Updated:
Sun & Moon Information:
Temp: N/A
Humidity: N/A
Wind Speed: N/A
Barometer: N/A
Dewpoint: N/A
Heat Index: N/A
Wind Chill: N/A
Civil Twilight: 7:10 AM EDT
Moonrise: 4:47 AM EDT Moon Phase:
Waning Crescent Moon
Waning Crescent Moon
Moonset: 5:52 PM EDT
Sunrise: 7:50 AM EDT
Sunset: 6:02 PM EDT
Civil Twilight: 6:42 PM EDT
Forecast for Inukjuak, QC:
(Forecast based on TAF for )
0409 PM EDT MON NOV 06 2006
  
AFTERNOONEVENING
LIGHT SNOWLIGHT SNOW
Light
Snow
Light
Snow
TAF based forecast:
Dated: 0409 PM EDT MON NOV 06 2006
Afternoon...Overcast with light snow,blowing and snow. Windy with winds from the south south east at 17 mphand gusts up to 29 mph. Possible periods of overcast with light snow.
Evening...Overcast with light snow,blowing and snow. Windy with winds from the south south east at 17 mphand gusts up to 29 mph. Possible periods of overcast with light snow.
Original Encoded TAF:
Dated: 0409 PM EDT MON NOV 06 2006
2006/11/06 20:09
CYPX 062009Z 062022 15015G25KT 11/4SM -SN BLSN OVC015 TEMPO 2022 21/2SM -SN OVC040=




Powered by Angler Guide.com
Copyright © 2007, all rights reserved.